createdAt,value
2019-01-10T00:00:14.085Z,3.17
2019-01-10T00:02:42.616Z,2.97
2019-01-10T00:05:12.102Z,3.23
2019-01-10T00:07:40.729Z,3.30
2019-01-10T00:10:13.898Z,3.10
2019-01-10T00:12:43.687Z,2.80
2019-01-10T00:15:15.037Z,3.23
2019-01-10T00:17:43.661Z,3.17
2019-01-10T00:20:14.401Z,2.73
2019-01-10T00:22:42.957Z,2.80
2019-01-10T00:25:13.572Z,3.00
2019-01-10T00:27:42.232Z,3.00
2019-01-10T00:30:19.743Z,3.00
2019-01-10T00:32:48.335Z,3.40
2019-01-10T00:35:16.829Z,2.93
2019-01-10T00:37:45.353Z,3.20
2019-01-10T00:40:16.113Z,2.47
2019-01-10T00:42:49.645Z,3.07
2019-01-10T00:45:16.878Z,3.57
2019-01-10T00:47:45.675Z,3.33
2019-01-10T00:50:22.480Z,3.13
2019-01-10T00:52:51.079Z,3.10
2019-01-10T00:55:19.524Z,2.93
2019-01-10T00:57:48.981Z,3.40
2019-01-10T01:00:23.112Z,3.20
2019-01-10T01:02:51.789Z,3.03
2019-01-10T01:05:20.971Z,3.20
2019-01-10T01:07:49.606Z,3.27
2019-01-10T01:10:23.380Z,3.20
2019-01-10T01:12:58.247Z,3.83
2019-01-10T01:15:23.284Z,3.10
2019-01-10T01:17:51.831Z,3.47
2019-01-10T01:20:22.738Z,3.13
2019-01-10T01:22:51.549Z,2.87
2019-01-10T01:25:20.008Z,3.13
2019-01-10T01:27:48.611Z,3.40
2019-01-10T01:30:19.329Z,3.00
2019-01-10T01:32:47.864Z,3.27
2019-01-10T01:35:16.865Z,3.00
2019-01-10T01:37:45.488Z,2.97
2019-01-10T01:40:16.781Z,3.30
2019-01-10T01:42:45.865Z,2.90
2019-01-10T01:45:16.777Z,2.90
2019-01-10T01:47:45.494Z,2.90
2019-01-10T01:50:19.290Z,3.03
2019-01-10T01:52:47.876Z,3.20
2019-01-10T01:55:16.401Z,3.00
2019-01-10T01:57:44.852Z,2.83
2019-01-10T02:00:16.381Z,2.30
2019-01-10T02:03:04.328Z,3.00
2019-01-10T02:05:32.879Z,2.57
2019-01-10T02:08:01.320Z,2.67
2019-01-10T02:10:29.772Z,3.07
2019-01-10T02:12:58.253Z,2.80
2019-01-10T02:15:26.941Z,2.90
2019-01-10T02:17:55.385Z,2.67
2019-01-10T02:20:43.205Z,2.77
2019-01-10T02:23:11.739Z,2.70
2019-01-10T02:25:40.280Z,2.50
2019-01-10T02:28:08.776Z,2.77
2019-01-10T02:30:42.106Z,2.40
2019-01-10T02:33:07.757Z,2.47
2019-01-10T02:35:36.256Z,2.47
2019-01-10T02:38:04.901Z,2.80
2019-01-10T02:40:33.368Z,2.63
2019-01-10T02:43:01.857Z,3.00
2019-01-10T02:45:30.349Z,2.80
2019-01-10T02:47:58.793Z,2.57
2019-01-10T02:50:27.278Z,2.60
2019-01-10T02:52:55.787Z,2.60
2019-01-10T02:55:24.245Z,2.33
2019-01-10T02:57:52.725Z,2.33
2019-01-10T03:00:23.112Z,3.30
2019-01-10T03:02:51.809Z,2.60
2019-01-10T03:05:20.707Z,2.73
2019-01-10T03:07:49.601Z,2.90
2019-01-10T03:10:23.407Z,3.17
2019-01-10T03:12:51.879Z,2.60
2019-01-10T03:15:20.331Z,3.33
2019-01-10T03:17:48.856Z,2.63
2019-01-10T03:20:22.192Z,2.80
2019-01-10T03:22:50.808Z,2.83
2019-01-10T03:25:19.429Z,2.63
2019-01-10T03:27:48.035Z,2.67
2019-01-10T03:30:20.672Z,2.67
2019-01-10T03:32:49.278Z,2.80
2019-01-10T03:35:17.830Z,2.87
2019-01-10T03:37:46.367Z,2.60
2019-01-10T03:40:19.884Z,2.40
2019-01-10T03:42:48.436Z,2.70
2019-01-10T03:45:18.802Z,2.57
2019-01-10T03:47:47.417Z,2.50
2019-01-10T03:50:17.580Z,2.70
2019-01-10T03:52:46.276Z,2.33
2019-01-10T03:55:15.200Z,2.87
2019-01-10T03:57:43.928Z,2.87
2019-01-10T04:00:18.090Z,2.47
2019-01-10T04:02:46.596Z,2.47
2019-01-10T04:05:15.269Z,2.57
2019-01-10T04:07:44.066Z,2.60
2019-01-10T04:10:15.262Z,2.60
2019-01-10T04:12:43.845Z,3.33
2019-01-10T04:15:14.396Z,2.60
2019-01-10T04:17:43.068Z,2.70
2019-01-10T04:20:14.376Z,2.97
2019-01-10T04:22:42.957Z,2.80
2019-01-10T04:25:13.541Z,2.83
2019-01-10T04:27:42.500Z,2.63
2019-01-10T04:30:19.117Z,2.50
2019-01-10T04:32:47.615Z,2.73
2019-01-10T04:35:16.143Z,2.77
2019-01-10T04:37:44.684Z,2.43
2019-01-10T04:40:18.510Z,2.47
2019-01-10T04:42:47.163Z,2.67
2019-01-10T04:45:16.117Z,2.77
2019-01-10T04:47:44.594Z,2.50
2019-01-10T04:50:14.580Z,2.80
2019-01-10T04:52:43.199Z,2.90
2019-01-10T04:55:13.096Z,2.80
2019-01-10T04:57:41.751Z,2.47
2019-01-10T05:00:16.248Z,3.00
2019-01-10T05:02:44.781Z,2.67
2019-01-10T05:05:13.308Z,2.90
2019-01-10T05:07:41.788Z,2.70
2019-01-10T05:10:11.219Z,2.40
2019-01-10T05:12:41.705Z,2.80
2019-01-10T05:15:12.859Z,3.10
2019-01-10T05:17:41.413Z,2.77
2019-01-10T05:20:18.052Z,2.73
2019-01-10T05:22:46.952Z,2.80
2019-01-10T05:25:15.587Z,2.47
2019-01-10T05:27:44.244Z,2.50
2019-01-10T05:30:15.911Z,3.00
2019-01-10T05:32:44.392Z,2.80
2019-01-10T05:35:12.858Z,2.50
2019-01-10T05:37:41.299Z,2.77
2019-01-10T05:40:12.032Z,2.63
2019-01-10T05:42:40.561Z,2.90
2019-01-10T05:45:12.074Z,3.00
2019-01-10T05:47:42.828Z,2.80
2019-01-10T05:50:13.069Z,2.53
2019-01-10T05:52:43.102Z,2.77
2019-01-10T05:55:13.905Z,2.67
2019-01-10T05:57:42.365Z,3.20
2019-01-10T06:00:17.421Z,2.80
2019-01-10T06:03:05.269Z,3.03
2019-01-10T06:05:33.720Z,2.87
2019-01-10T06:08:02.266Z,3.20
2019-01-10T06:10:30.755Z,3.00
2019-01-10T06:12:59.276Z,2.77
2019-01-10T06:15:27.762Z,3.00
2019-01-10T06:17:56.272Z,3.37
2019-01-10T06:20:25.476Z,2.73
2019-01-10T06:22:54.000Z,3.43
2019-01-10T06:25:22.540Z,2.80
2019-01-10T06:27:51.059Z,2.97
2019-01-10T06:30:21.576Z,3.17
2019-01-10T06:32:50.125Z,2.90
2019-01-10T06:35:18.657Z,2.70
2019-01-10T06:37:47.111Z,3.03
2019-01-10T06:40:18.521Z,3.07
2019-01-10T06:42:46.976Z,2.83
2019-01-10T06:45:17.090Z,3.03
2019-01-10T06:47:45.989Z,3.10
2019-01-10T06:50:16.304Z,3.43
2019-01-10T06:52:45.055Z,2.77
2019-01-10T06:55:13.614Z,3.57
2019-01-10T06:57:42.736Z,3.00
2019-01-10T07:00:19.888Z,2.70
2019-01-10T07:02:48.708Z,2.80
2019-01-10T07:05:17.167Z,3.10
2019-01-10T07:07:45.714Z,3.03
2019-01-10T07:10:19.612Z,2.97
2019-01-10T07:12:48.123Z,2.90
2019-01-10T07:15:16.595Z,3.13
2019-01-10T07:17:45.064Z,3.17
2019-01-10T07:20:15.189Z,3.13
2019-01-10T07:22:46.535Z,2.63
2019-01-10T07:25:15.002Z,4.00
2019-01-10T07:27:43.591Z,3.23
2019-01-10T07:30:17.832Z,3.23
2019-01-10T07:32:46.378Z,3.63
2019-01-10T07:35:14.826Z,3.10
2019-01-10T07:37:47.330Z,3.33
2019-01-10T07:40:16.328Z,3.07
2019-01-10T07:42:44.815Z,3.23
2019-01-10T07:45:18.823Z,3.53
2019-01-10T07:47:47.812Z,3.50
2019-01-10T07:50:18.664Z,3.73
2019-01-10T07:52:47.656Z,3.03
2019-01-10T07:55:16.133Z,3.10
2019-01-10T07:57:44.665Z,3.07
2019-01-10T08:00:16.529Z,3.80
2019-01-10T08:02:45.068Z,3.00
2019-01-10T08:05:13.921Z,3.33
2019-01-10T08:07:42.545Z,2.97
2019-01-10T08:10:14.257Z,3.60
2019-01-10T08:12:42.776Z,3.40
2019-01-10T08:15:14.742Z,3.07
2019-01-10T08:17:43.194Z,3.23
2019-01-10T08:20:12.461Z,3.10
2019-01-10T08:22:41.057Z,3.13
2019-01-10T08:25:10.055Z,3.07
2019-01-10T08:27:38.587Z,2.97
2019-01-10T08:30:16.321Z,3.33
2019-01-10T08:32:44.842Z,3.50
2019-01-10T08:35:15.250Z,2.90
2019-01-10T08:37:43.893Z,3.37
2019-01-10T08:40:12.696Z,3.00
2019-01-10T08:42:41.144Z,2.90
2019-01-10T08:45:11.021Z,3.07
2019-01-10T08:47:39.511Z,3.50
2019-01-10T08:50:11.190Z,3.33
2019-01-10T08:52:39.704Z,3.37
2019-01-10T08:55:08.469Z,3.00
2019-01-10T08:57:36.919Z,3.50
2019-01-10T09:00:09.641Z,3.23
2019-01-10T09:02:38.473Z,3.13
2019-01-10T09:05:07.494Z,3.23
2019-01-10T09:07:36.020Z,2.87
2019-01-10T09:10:07.408Z,4.30
2019-01-10T09:12:35.936Z,3.00
2019-01-10T09:15:07.157Z,3.00
2019-01-10T09:17:35.698Z,3.07
2019-01-10T09:20:07.384Z,3.93
2019-01-10T09:22:35.844Z,3.40
2019-01-10T09:25:05.288Z,3.27
2019-01-10T09:27:33.744Z,3.07
2019-01-10T09:30:02.281Z,3.57
2019-01-10T09:32:30.829Z,3.07
2019-01-10T09:34:59.288Z,3.57
2019-01-10T09:37:27.752Z,3.50
2019-01-10T09:39:56.228Z,3.17
2019-01-10T09:42:24.779Z,3.63
2019-01-10T09:44:53.304Z,3.40
2019-01-10T09:47:21.801Z,3.30
2019-01-10T09:49:50.387Z,3.60
2019-01-10T09:52:19.028Z,3.43
2019-01-10T09:54:47.517Z,3.43
2019-01-10T09:57:16.083Z,3.40
2019-01-10T09:59:44.536Z,3.77
2019-01-10T10:02:13.007Z,3.33
2019-01-10T10:04:41.472Z,3.27
2019-01-10T10:07:09.949Z,4.30
2019-01-10T10:09:38.433Z,3.13
2019-01-10T10:12:06.961Z,4.23
2019-01-10T10:14:35.414Z,3.63
2019-01-10T10:17:04.063Z,3.53
2019-01-10T10:19:32.711Z,3.50
2019-01-10T10:22:01.238Z,3.37
2019-01-10T10:24:29.831Z,3.33
2019-01-10T10:26:58.286Z,3.00
2019-01-10T10:29:46.173Z,3.27
2019-01-10T10:32:14.652Z,3.03
2019-01-10T10:34:43.124Z,3.27
2019-01-10T10:37:11.576Z,2.50
2019-01-10T10:39:40.040Z,2.20
2019-01-10T10:42:08.536Z,2.73
2019-01-10T10:44:36.981Z,2.60
2019-01-10T10:47:05.461Z,2.50
2019-01-10T10:49:34.058Z,3.03
2019-01-10T10:52:22.010Z,2.80
2019-01-10T10:54:50.496Z,2.43
2019-01-10T10:57:19.116Z,2.73
2019-01-10T10:59:47.576Z,3.30
2019-01-10T11:02:16.480Z,3.00
2019-01-10T11:04:44.925Z,2.97
2019-01-10T11:07:13.469Z,2.67
2019-01-10T11:09:42.233Z,2.30
2019-01-10T11:12:10.711Z,2.93
2019-01-10T11:14:39.221Z,2.07
2019-01-10T11:17:07.869Z,2.60
2019-01-10T11:19:36.367Z,2.60
2019-01-10T11:22:05.356Z,2.80
2019-01-10T11:24:33.916Z,2.73
2019-01-10T11:27:02.388Z,2.23
2019-01-10T11:29:30.908Z,3.40
2019-01-10T11:31:59.416Z,2.40
2019-01-10T11:34:27.925Z,2.00
2019-01-10T11:36:56.387Z,2.47
2019-01-10T11:39:24.854Z,2.73
2019-01-10T11:41:53.342Z,2.37
2019-01-10T11:44:21.876Z,2.27
2019-01-10T11:46:50.322Z,2.80
2019-01-10T11:49:18.872Z,2.30
2019-01-10T11:51:47.337Z,2.63
2019-01-10T11:54:15.804Z,3.00
2019-01-10T11:56:44.380Z,1.90
2019-01-10T11:59:12.877Z,2.27
2019-01-10T12:01:41.329Z,2.80
2019-01-10T12:04:09.829Z,2.30
2019-01-10T12:06:38.400Z,2.33
2019-01-10T12:09:07.872Z,2.30
2019-01-10T12:11:38.307Z,1.97
2019-01-10T12:14:06.711Z,2.77
2019-01-10T12:16:35.232Z,2.90
2019-01-10T12:19:03.813Z,2.27
2019-01-10T12:21:33.000Z,2.33
2019-01-10T12:24:01.458Z,2.20
2019-01-10T12:26:30.109Z,2.00
2019-01-10T12:28:58.619Z,2.60
2019-01-10T12:31:27.110Z,2.33
2019-01-10T12:33:55.613Z,3.17
2019-01-10T12:36:24.100Z,2.00
2019-01-10T12:38:52.587Z,2.30
2019-01-10T12:41:21.196Z,1.93
2019-01-10T12:43:49.784Z,2.63
2019-01-10T12:46:18.412Z,2.43
2019-01-10T12:48:46.935Z,1.80
2019-01-10T12:51:15.384Z,2.60
2019-01-10T12:53:43.864Z,2.67
2019-01-10T12:56:12.376Z,2.53
2019-01-10T12:58:40.916Z,2.23
2019-01-10T13:01:09.386Z,2.30
2019-01-10T13:03:37.851Z,2.77
2019-01-10T13:06:06.497Z,2.03
2019-01-10T13:08:34.988Z,3.27
2019-01-10T13:11:22.813Z,2.67
2019-01-10T13:13:51.355Z,1.80
2019-01-10T13:16:19.892Z,2.30
2019-01-10T13:18:48.421Z,2.13
2019-01-10T13:21:16.920Z,2.17
2019-01-10T13:23:57.186Z,2.47
2019-01-10T13:26:25.724Z,2.17
2019-01-10T13:28:54.187Z,2.37
2019-01-10T13:31:22.641Z,1.97
2019-01-10T13:33:51.149Z,2.53
2019-01-10T13:36:21.205Z,2.40
2019-01-10T13:38:49.729Z,2.67
2019-01-10T13:41:18.275Z,2.10
2019-01-10T13:43:46.732Z,2.10
2019-01-10T13:46:15.982Z,1.83
2019-01-10T13:48:51.231Z,1.70
2019-01-10T13:51:15.010Z,2.10
2019-01-10T13:53:43.486Z,2.20
2019-01-10T13:56:11.948Z,2.00
2019-01-10T13:58:43.161Z,2.30
2019-01-10T14:01:11.698Z,1.53
2019-01-10T14:03:40.146Z,2.10
2019-01-10T14:06:08.621Z,2.00
2019-01-10T14:08:37.395Z,2.07
2019-01-10T14:11:25.483Z,2.07
2019-01-10T14:13:53.930Z,2.10
2019-01-10T14:16:22.523Z,1.83
2019-01-10T14:18:51.868Z,1.90
2019-01-10T14:21:20.337Z,1.93
2019-01-10T14:23:48.859Z,2.20
2019-01-10T14:26:17.520Z,2.23
2019-01-10T14:28:46.035Z,1.80
2019-01-10T14:31:14.508Z,2.13
2019-01-10T14:33:43.153Z,1.90
2019-01-10T14:36:11.677Z,2.20
2019-01-10T14:38:40.219Z,2.13
2019-01-10T14:41:08.748Z,1.90
2019-01-10T14:43:37.200Z,1.90
2019-01-10T14:46:05.729Z,1.97
2019-01-10T14:48:34.291Z,2.37
2019-01-10T14:51:02.816Z,2.10
2019-01-10T14:53:31.289Z,2.07
2019-01-10T14:55:59.808Z,2.23
2019-01-10T14:58:28.289Z,2.20
2019-01-10T15:00:56.817Z,2.33
2019-01-10T15:03:25.268Z,1.70
2019-01-10T15:05:53.723Z,1.87
2019-01-10T15:08:22.209Z,1.77
2019-01-10T15:10:50.809Z,2.10
2019-01-10T15:13:19.332Z,1.60
2019-01-10T15:15:47.884Z,2.00
2019-01-10T15:18:16.490Z,1.80
2019-01-10T15:20:44.945Z,1.80
2019-01-10T15:23:13.433Z,1.70
2019-01-10T15:25:41.965Z,1.70
2019-01-10T15:28:13.294Z,1.50
2019-01-10T15:30:41.785Z,1.70
2019-01-10T15:33:10.301Z,1.87
2019-01-10T15:35:38.783Z,1.50
2019-01-10T15:38:07.312Z,1.70
2019-01-10T15:40:35.847Z,1.70
2019-01-10T15:43:05.048Z,2.03
2019-01-10T15:45:33.672Z,2.20
2019-01-10T15:48:02.170Z,2.17
2019-01-10T15:50:30.819Z,2.40
2019-01-10T15:52:59.290Z,1.80
2019-01-10T15:55:27.794Z,1.93
2019-01-10T15:57:56.287Z,2.60
2019-01-10T16:00:25.412Z,2.47
2019-01-10T16:02:53.913Z,2.73
2019-01-10T16:05:24.013Z,2.90
2019-01-10T16:07:52.596Z,2.60
2019-01-10T16:10:21.618Z,2.87
2019-01-10T16:12:50.164Z,2.53
2019-01-10T16:15:23.877Z,2.30
2019-01-10T16:17:52.329Z,2.60
2019-01-10T16:20:20.795Z,2.87
2019-01-10T16:22:49.357Z,2.60
2019-01-10T16:25:19.762Z,2.50
2019-01-10T16:27:48.553Z,2.60
2019-01-10T16:30:22.451Z,2.30
2019-01-10T16:32:50.916Z,2.53
2019-01-10T16:35:19.377Z,2.03
2019-01-10T16:37:47.999Z,2.60
2019-01-10T16:40:17.799Z,1.80
2019-01-10T16:42:46.351Z,2.20
2019-01-10T16:45:17.935Z,1.93
2019-01-10T16:47:46.393Z,2.00
2019-01-10T16:50:16.481Z,1.97
2019-01-10T16:52:44.956Z,1.80
2019-01-10T16:55:15.025Z,1.50
2019-01-10T16:57:43.539Z,1.40
2019-01-10T17:00:26.933Z,1.50
2019-01-10T17:02:55.391Z,1.50
2019-01-10T17:05:23.876Z,1.70
2019-01-10T17:07:52.337Z,1.73
2019-01-10T17:10:21.080Z,1.60
2019-01-10T17:12:49.547Z,1.30
2019-01-10T17:15:18.491Z,2.07
2019-01-10T17:17:47.041Z,2.17
2019-01-10T17:20:18.585Z,1.90
2019-01-10T17:22:47.088Z,1.57
2019-01-10T17:25:15.881Z,1.93
2019-01-10T17:27:44.399Z,2.00
2019-01-10T17:30:21.514Z,1.97
2019-01-10T17:32:49.960Z,2.00
2019-01-10T17:35:21.176Z,1.90
2019-01-10T17:37:49.662Z,1.80
2019-01-10T17:40:20.623Z,1.90
2019-01-10T17:42:49.319Z,2.00
2019-01-10T17:45:20.948Z,1.80
2019-01-10T17:47:49.411Z,1.67
2019-01-10T17:50:19.445Z,1.70
2019-01-10T17:52:48.042Z,1.70
2019-01-10T17:55:16.584Z,1.80
2019-01-10T17:57:45.112Z,1.90
2019-01-10T18:00:16.708Z,1.53
2019-01-10T18:02:45.225Z,1.77
2019-01-10T18:05:14.111Z,1.80
2019-01-10T18:07:42.699Z,1.50
2019-01-10T18:10:19.533Z,1.70
2019-01-10T18:12:48.191Z,1.87
2019-01-10T18:15:19.624Z,1.50
2019-01-10T18:17:50.359Z,1.60
2019-01-10T18:20:21.584Z,1.60
2019-01-10T18:22:50.086Z,2.10
2019-01-10T18:25:18.613Z,2.67
2019-01-10T18:27:47.081Z,2.00
2019-01-10T18:30:21.417Z,2.17
2019-01-10T18:32:49.873Z,2.17
2019-01-10T18:35:25.583Z,2.10
2019-01-10T18:37:49.472Z,2.43
2019-01-10T18:40:18.545Z,1.90
2019-01-10T18:42:47.041Z,2.57
2019-01-10T18:45:24.048Z,2.30
2019-01-10T18:47:56.898Z,2.27
2019-01-10T18:50:24.155Z,2.37
2019-01-10T18:52:52.761Z,2.23
2019-01-10T18:55:21.368Z,1.93
2019-01-10T18:57:49.816Z,2.40
2019-01-10T19:00:29.186Z,2.10
2019-01-10T19:02:57.976Z,2.33
2019-01-10T19:05:27.074Z,2.40
2019-01-10T19:07:55.560Z,2.30
2019-01-10T19:10:24.760Z,2.40
2019-01-10T19:12:53.463Z,2.30
2019-01-10T19:15:22.073Z,1.93
2019-01-10T19:17:50.671Z,2.10
2019-01-10T19:20:24.409Z,2.10
2019-01-10T19:22:53.022Z,2.40
2019-01-10T19:25:21.557Z,1.87
2019-01-10T19:27:50.037Z,2.20
2019-01-10T19:30:21.367Z,2.20
2019-01-10T19:32:49.951Z,2.17
2019-01-10T19:35:18.408Z,2.17
2019-01-10T19:37:46.942Z,2.30
2019-01-10T19:40:18.035Z,2.50
2019-01-10T19:42:46.649Z,2.63
2019-01-10T19:45:17.464Z,2.40
2019-01-10T19:47:45.932Z,2.40
2019-01-10T19:50:17.520Z,2.30
2019-01-10T19:52:46.055Z,2.27
2019-01-10T19:55:16.498Z,2.50
2019-01-10T19:57:45.080Z,2.57
2019-01-10T20:00:27.913Z,2.60
2019-01-10T20:02:56.510Z,2.80
2019-01-10T20:05:25.052Z,2.57
2019-01-10T20:07:53.748Z,2.43
2019-01-10T20:10:22.274Z,2.70
2019-01-10T20:12:50.895Z,3.93
2019-01-10T20:15:19.369Z,3.20
2019-01-10T20:17:47.974Z,3.13
2019-01-10T20:20:19.501Z,3.30
2019-01-10T20:22:48.069Z,2.83
2019-01-10T20:25:16.531Z,3.33
2019-01-10T20:27:45.001Z,3.10
2019-01-10T20:30:18.431Z,3.00
2019-01-10T20:32:46.979Z,3.83
2019-01-10T20:35:15.663Z,3.77
2019-01-10T20:37:44.232Z,3.83
2019-01-10T20:40:18.121Z,3.63
2019-01-10T20:42:46.717Z,3.40
2019-01-10T20:45:16.814Z,3.50
2019-01-10T20:47:45.553Z,3.57
2019-01-10T20:50:16.377Z,3.37
2019-01-10T20:52:44.994Z,3.33
2019-01-10T20:55:15.368Z,3.33
2019-01-10T20:57:44.064Z,3.50
2019-01-10T21:00:24.456Z,3.17
2019-01-10T21:02:52.975Z,3.10
2019-01-10T21:05:21.446Z,3.10
2019-01-10T21:07:50.854Z,2.77
2019-01-10T21:10:21.896Z,2.73
2019-01-10T21:12:50.917Z,3.00
2019-01-10T21:15:26.515Z,3.33
2019-01-10T21:17:55.444Z,3.00
2019-01-10T21:20:24.366Z,3.73
2019-01-10T21:22:53.152Z,2.93
2019-01-10T21:25:21.612Z,2.80
2019-01-10T21:27:50.069Z,3.03
2019-01-10T21:30:23.530Z,3.50
2019-01-10T21:32:52.091Z,3.33
2019-01-10T21:35:20.899Z,2.90
2019-01-10T21:37:49.539Z,3.37
2019-01-10T21:40:20.383Z,3.20
2019-01-10T21:42:50.552Z,3.60
2019-01-10T21:45:19.866Z,3.67
2019-01-10T21:47:48.384Z,3.67
2019-01-10T21:50:25.194Z,3.90
2019-01-10T21:52:53.863Z,4.63
2019-01-10T21:55:22.598Z,4.30
2019-01-10T21:57:51.195Z,3.97
2019-01-10T22:00:39.053Z,4.53
2019-01-10T22:03:07.496Z,4.53
2019-01-10T22:05:36.028Z,4.90
2019-01-10T22:08:06.164Z,4.80
2019-01-10T22:10:35.284Z,4.77
2019-01-10T22:13:04.036Z,5.07
2019-01-10T22:15:32.495Z,5.23
2019-01-10T22:18:00.956Z,5.60
2019-01-10T22:20:29.589Z,5.70
2019-01-10T22:22:58.040Z,5.70
2019-01-10T22:25:45.858Z,5.27
2019-01-10T22:28:14.313Z,6.20
2019-01-10T22:30:42.844Z,6.27
2019-01-10T22:33:30.694Z,6.07
2019-01-10T22:35:59.213Z,6.57
2019-01-10T22:38:27.673Z,6.87
2019-01-10T22:40:56.303Z,7.73
2019-01-10T22:43:24.764Z,7.70
2019-01-10T22:45:53.239Z,8.17
2019-01-10T22:48:21.724Z,7.70
2019-01-10T22:50:50.245Z,8.13
2019-01-10T22:53:18.863Z,8.77
2019-01-10T22:55:47.388Z,8.73
2019-01-10T22:58:16.321Z,8.87
2019-01-10T23:01:01.311Z,9.30
2019-01-10T23:03:33.183Z,8.70
2019-01-10T23:06:01.639Z,8.90
2019-01-10T23:08:30.323Z,9.37
2019-01-10T23:10:58.780Z,9.83
2019-01-10T23:13:27.320Z,9.00
2019-01-10T23:15:55.867Z,8.87
2019-01-10T23:18:24.394Z,9.53
2019-01-10T23:20:58.703Z,10.27
2019-01-10T23:23:27.192Z,9.43
2019-01-10T23:25:55.909Z,9.97
2019-01-10T23:28:24.524Z,8.77
2019-01-10T23:31:00.932Z,9.17
2019-01-10T23:33:29.472Z,10.30
2019-01-10T23:36:03.120Z,10.53
2019-01-10T23:38:31.975Z,10.27
2019-01-10T23:41:00.690Z,11.30
2019-01-10T23:43:29.240Z,9.97
2019-01-10T23:45:57.763Z,10.27
2019-01-10T23:48:26.373Z,11.17
2019-01-10T23:50:54.919Z,9.97
2019-01-10T23:53:23.537Z,10.97
2019-01-10T23:55:52.003Z,11.47
2019-01-10T23:58:20.475Z,10.57
